createdAt,value
2018-12-22T00:00:41.974Z,88.00
2018-12-22T00:03:11.962Z,87.90
2018-12-22T00:05:41.338Z,87.80
2018-12-22T00:08:10.846Z,87.60
2018-12-22T00:10:40.766Z,87.10
2018-12-22T00:13:10.341Z,87.10
2018-12-22T00:15:39.855Z,86.60
2018-12-22T00:18:09.457Z,86.50
2018-12-22T00:20:39.238Z,86.40
2018-12-22T00:23:08.630Z,86.20
2018-12-22T00:25:38.540Z,86.00
2018-12-22T00:28:08.364Z,85.70
2018-12-22T00:30:38.531Z,85.70
2018-12-22T00:33:08.459Z,85.80
2018-12-22T00:35:38.596Z,85.10
2018-12-22T00:38:08.728Z,84.80
2018-12-22T00:40:38.796Z,84.90
2018-12-22T00:43:08.615Z,84.80
2018-12-22T00:45:38.653Z,84.80
2018-12-22T00:48:08.579Z,84.70
2018-12-22T00:50:38.583Z,84.70
2018-12-22T00:53:08.303Z,84.90
2018-12-22T00:55:38.631Z,84.90
2018-12-22T00:58:08.393Z,84.70
2018-12-22T01:00:38.355Z,84.60
2018-12-22T01:03:08.060Z,84.50
2018-12-22T01:05:37.847Z,84.30
2018-12-22T01:08:07.244Z,85.00
2018-12-22T01:10:36.884Z,84.30
2018-12-22T01:13:06.581Z,84.40
2018-12-22T01:15:37.304Z,84.40
2018-12-22T01:18:06.801Z,84.20
2018-12-22T01:20:36.564Z,84.20
2018-12-22T01:23:05.995Z,84.10
2018-12-22T01:25:35.211Z,84.20
2018-12-22T01:28:06.254Z,84.30
2018-12-22T01:30:35.676Z,84.20
2018-12-22T01:33:05.375Z,84.30
2018-12-22T01:35:34.763Z,84.30
2018-12-22T01:38:04.246Z,84.30
2018-12-22T01:40:33.504Z,84.00
2018-12-22T01:43:03.530Z,83.90
2018-12-22T01:45:32.920Z,83.70
2018-12-22T01:48:02.432Z,83.50
2018-12-22T01:50:31.925Z,83.60
2018-12-22T01:53:01.527Z,83.70
2018-12-22T01:55:30.825Z,83.80
2018-12-22T01:58:00.267Z,84.00
2018-12-22T02:00:30.833Z,84.10
2018-12-22T02:03:00.367Z,84.30
2018-12-22T02:05:30.758Z,84.60
2018-12-22T02:08:00.628Z,84.60
2018-12-22T02:10:30.235Z,84.70
2018-12-22T02:12:59.903Z,84.70
2018-12-22T02:15:29.174Z,84.90
2018-12-22T02:17:58.722Z,85.60
2018-12-22T02:20:28.035Z,87.00
2018-12-22T02:22:58.091Z,87.50
2018-12-22T02:25:27.734Z,88.40
2018-12-22T02:27:56.971Z,88.90
2018-12-22T02:30:26.557Z,90.10
2018-12-22T02:32:56.108Z,89.40
2018-12-22T02:35:25.334Z,89.80
2018-12-22T02:37:54.698Z,89.70
2018-12-22T02:40:24.374Z,89.70
2018-12-22T02:42:54.405Z,89.90
2018-12-22T02:45:24.272Z,90.10
2018-12-22T02:47:53.811Z,90.10
2018-12-22T02:50:23.319Z,90.10
2018-12-22T02:52:52.736Z,90.10
2018-12-22T02:55:22.737Z,90.10
2018-12-22T02:57:52.286Z,90.10
2018-12-22T03:00:21.763Z,90.20
2018-12-22T03:02:51.122Z,90.30
2018-12-22T03:05:20.562Z,90.40
2018-12-22T03:07:50.168Z,90.40
2018-12-22T03:10:19.411Z,90.30
2018-12-22T03:12:48.921Z,90.30
2018-12-22T03:15:18.166Z,90.50
2018-12-22T03:17:48.054Z,90.80
2018-12-22T03:20:17.787Z,90.40
2018-12-22T03:22:47.323Z,90.30
2018-12-22T03:25:17.341Z,90.30
2018-12-22T03:27:47.033Z,90.30
2018-12-22T03:30:16.349Z,90.30
2018-12-22T03:32:45.820Z,90.10
2018-12-22T03:35:16.281Z,90.10
2018-12-22T03:37:45.919Z,90.20
2018-12-22T03:40:15.585Z,90.30
2018-12-22T03:42:45.085Z,90.10
2018-12-22T03:45:14.538Z,89.90
2018-12-22T03:47:44.186Z,89.80
2018-12-22T03:50:13.876Z,89.60
2018-12-22T03:52:43.143Z,89.50
2018-12-22T03:55:12.614Z,89.20
2018-12-22T03:57:42.234Z,89.00
2018-12-22T04:00:11.728Z,88.80
2018-12-22T04:02:41.316Z,88.70
2018-12-22T04:05:10.769Z,88.70
2018-12-22T04:07:40.438Z,88.50
2018-12-22T04:10:10.355Z,88.40
2018-12-22T04:12:40.053Z,88.30
2018-12-22T04:15:09.787Z,88.30
2018-12-22T04:17:39.118Z,88.30
2018-12-22T04:20:09.131Z,88.90
2018-12-22T04:22:38.829Z,88.10
2018-12-22T04:25:09.363Z,88.10
2018-12-22T04:27:39.257Z,88.20
2018-12-22T04:30:09.869Z,88.20
2018-12-22T04:32:39.724Z,88.50
2018-12-22T04:35:09.555Z,88.70
2018-12-22T04:37:39.293Z,89.10
2018-12-22T04:40:08.983Z,89.10
2018-12-22T04:42:38.685Z,89.50
2018-12-22T04:45:07.971Z,89.70
2018-12-22T04:47:39.916Z,90.00
2018-12-22T04:50:09.832Z,89.80
2018-12-22T04:52:39.202Z,89.60
2018-12-22T04:55:08.810Z,89.40
2018-12-22T04:57:38.113Z,89.40
2018-12-22T05:00:09.933Z,88.60
2018-12-22T05:02:39.488Z,88.40
2018-12-22T05:05:09.069Z,88.60
2018-12-22T05:07:38.434Z,89.00
2018-12-22T05:10:08.354Z,89.10
2018-12-22T05:12:38.468Z,89.40
2018-12-22T05:15:09.483Z,89.30
2018-12-22T05:17:38.990Z,89.60
2018-12-22T05:20:08.480Z,88.70
2018-12-22T05:22:37.959Z,88.60
2018-12-22T05:25:07.543Z,88.40
2018-12-22T05:27:37.477Z,88.10
2018-12-22T05:30:09.498Z,87.50
2018-12-22T05:32:39.751Z,87.60
2018-12-22T05:35:09.076Z,87.50
2018-12-22T05:37:38.900Z,87.10
2018-12-22T05:40:08.384Z,87.00
2018-12-22T05:42:37.662Z,87.00
2018-12-22T05:45:07.142Z,86.80
2018-12-22T05:47:36.436Z,86.70
2018-12-22T05:50:06.449Z,86.80
2018-12-22T05:52:35.704Z,86.50
2018-12-22T05:55:05.645Z,86.20
2018-12-22T05:57:35.573Z,86.00
2018-12-22T06:00:06.506Z,86.00
2018-12-22T06:02:36.343Z,85.50
2018-12-22T06:05:08.523Z,86.00
2018-12-22T06:07:39.031Z,85.90
2018-12-22T06:10:08.869Z,85.80
2018-12-22T06:12:38.092Z,85.80
2018-12-22T06:15:08.039Z,85.90
2018-12-22T06:17:37.575Z,85.50
2018-12-22T06:20:09.575Z,85.70
2018-12-22T06:22:39.359Z,85.50
2018-12-22T06:29:15.516Z,85.60
2018-12-22T06:31:44.880Z,85.70
2018-12-22T06:34:14.161Z,85.60
2018-12-22T06:36:43.467Z,85.60
2018-12-22T06:39:12.783Z,85.40
2018-12-22T06:41:42.083Z,85.30
2018-12-22T06:44:11.393Z,85.30
2018-12-22T06:46:40.662Z,85.30
2018-12-22T06:49:10.172Z,85.70
2018-12-22T06:51:39.627Z,85.80
2018-12-22T06:54:09.059Z,85.90
2018-12-22T06:56:38.398Z,86.00
2018-12-22T06:59:07.778Z,86.10
2018-12-22T07:01:37.077Z,85.90
2018-12-22T07:04:06.414Z,86.00
2018-12-22T07:06:35.847Z,85.80
2018-12-22T07:09:06.660Z,85.60
2018-12-22T07:11:35.964Z,85.60
2018-12-22T07:14:05.217Z,85.40
2018-12-22T07:16:34.492Z,85.30
2018-12-22T07:19:04.056Z,85.00
2018-12-22T07:21:33.325Z,84.80
2018-12-22T07:24:02.679Z,84.60
2018-12-22T07:26:32.052Z,84.40
2018-12-22T07:29:01.314Z,84.00
2018-12-22T07:31:30.566Z,84.10
2018-12-22T07:34:00.184Z,83.80
2018-12-22T07:36:29.450Z,83.50
2018-12-22T07:38:58.741Z,83.30
2018-12-22T07:41:28.160Z,83.40
2018-12-22T07:43:57.572Z,83.40
2018-12-22T07:46:27.428Z,83.50
2018-12-22T07:48:56.907Z,83.50
2018-12-22T07:51:26.334Z,83.60
2018-12-22T07:53:55.611Z,83.50
2018-12-22T07:56:24.929Z,83.30
2018-12-22T07:58:54.260Z,83.30
2018-12-22T08:01:23.677Z,83.40
2018-12-22T08:03:54.400Z,83.30
2018-12-22T08:06:23.844Z,83.30
2018-12-22T08:08:53.423Z,83.30
2018-12-22T08:11:22.897Z,83.30
2018-12-22T08:13:52.191Z,83.40
2018-12-22T08:16:21.708Z,83.30
2018-12-22T08:18:51.037Z,83.50
2018-12-22T08:21:20.384Z,83.70
2018-12-22T08:23:49.763Z,83.60
2018-12-22T08:26:19.155Z,83.60
2018-12-22T08:28:49.259Z,83.30
2018-12-22T08:31:18.678Z,83.50
2018-12-22T08:33:48.026Z,83.50
2018-12-22T08:36:17.382Z,83.20
2018-12-22T08:38:46.754Z,83.00
2018-12-22T08:41:17.105Z,82.90
2018-12-22T08:43:46.461Z,82.80
2018-12-22T08:46:15.791Z,82.70
2018-12-22T08:48:45.217Z,83.00
2018-12-22T08:51:14.632Z,83.10
2018-12-22T08:53:43.952Z,83.40
2018-12-22T08:56:13.358Z,83.60
2018-12-22T08:58:42.653Z,83.90
2018-12-22T09:01:12.168Z,84.30
2018-12-22T09:03:41.596Z,84.40
2018-12-22T09:06:10.859Z,85.20
2018-12-22T09:08:40.294Z,85.50
2018-12-22T09:11:09.748Z,85.70
2018-12-22T09:13:39.095Z,87.40
2018-12-22T09:16:08.518Z,86.50
2018-12-22T09:18:38.160Z,87.90
2018-12-22T09:21:07.644Z,85.80
2018-12-22T09:23:37.302Z,85.60
2018-12-22T09:26:08.497Z,87.50
2018-12-22T09:28:38.359Z,87.10
2018-12-22T09:31:07.975Z,85.20
2018-12-22T09:33:37.260Z,85.10
2018-12-22T09:36:06.674Z,85.10
2018-12-22T09:38:36.090Z,85.40
2018-12-22T09:41:06.150Z,85.50
2018-12-22T09:43:35.475Z,85.70
2018-12-22T09:46:04.890Z,85.70
2018-12-22T09:48:34.318Z,85.40
2018-12-22T09:51:03.978Z,85.50
2018-12-22T09:53:33.306Z,85.20
2018-12-22T09:56:02.624Z,85.00
2018-12-22T09:58:32.048Z,84.50
2018-12-22T10:01:09.135Z,84.80
2018-12-22T10:03:32.907Z,84.90
2018-12-22T10:06:02.168Z,85.00
2018-12-22T10:08:32.217Z,85.40
2018-12-22T10:11:01.492Z,85.40
2018-12-22T10:13:30.835Z,85.10
2018-12-22T10:16:00.503Z,85.10
2018-12-22T10:18:29.791Z,84.60
2018-12-22T10:21:00.113Z,84.60
2018-12-22T10:23:29.370Z,84.70
2018-12-22T10:25:58.664Z,84.70
2018-12-22T10:28:27.965Z,84.40
2018-12-22T10:30:57.235Z,84.10
2018-12-22T10:33:26.520Z,83.90
2018-12-22T10:35:55.927Z,83.80
2018-12-22T10:38:25.245Z,83.60
2018-12-22T10:40:54.622Z,83.70
2018-12-22T10:43:24.019Z,83.70
2018-12-22T10:45:53.467Z,83.90
2018-12-22T10:48:22.865Z,83.70
2018-12-22T10:50:52.274Z,84.00
2018-12-22T10:53:21.697Z,84.30
2018-12-22T10:55:51.072Z,84.70
2018-12-22T10:58:20.393Z,85.40
2018-12-22T11:00:49.709Z,85.50
2018-12-22T11:03:18.953Z,86.00
2018-12-22T11:05:48.285Z,86.00
2018-12-22T11:08:17.540Z,86.20
2018-12-22T11:10:46.840Z,86.60
2018-12-22T11:13:16.188Z,86.90
2018-12-22T11:15:45.439Z,86.60
2018-12-22T11:18:14.688Z,87.00
2018-12-22T11:20:43.996Z,86.60
2018-12-22T11:23:20.419Z,86.30
2018-12-22T11:25:45.614Z,86.20
2018-12-22T11:28:14.874Z,85.70
2018-12-22T11:30:44.692Z,84.70
2018-12-22T11:33:14.022Z,84.50
2018-12-22T11:35:43.563Z,83.90
2018-12-22T11:38:13.173Z,83.20
2018-12-22T11:40:42.460Z,82.10
2018-12-22T11:43:11.896Z,82.10
2018-12-22T11:45:41.348Z,82.20
2018-12-22T11:48:22.664Z,82.00
2018-12-22T11:50:52.387Z,81.90
2018-12-22T11:53:21.754Z,82.10
2018-12-22T11:55:51.121Z,82.00
2018-12-22T11:58:20.567Z,82.50
2018-12-22T12:00:49.847Z,83.10
2018-12-22T12:03:19.215Z,83.20
2018-12-22T12:05:48.575Z,83.70
2018-12-22T12:08:18.085Z,84.10
2018-12-22T12:10:47.483Z,84.30
2018-12-22T12:13:16.791Z,84.40
2018-12-22T12:15:52.597Z,84.60
2018-12-22T12:18:40.560Z,84.70
2018-12-22T12:21:10.262Z,84.80
2018-12-22T12:23:39.540Z,85.10
2018-12-22T12:26:08.987Z,85.70
2018-12-22T12:28:38.352Z,86.60
2018-12-22T12:31:07.657Z,86.00
2018-12-22T12:33:37.043Z,86.80
2018-12-22T12:36:06.417Z,86.50
2018-12-22T12:38:35.718Z,86.60
2018-12-22T12:41:05.022Z,86.80
2018-12-22T12:43:34.385Z,86.90
2018-12-22T12:46:03.648Z,87.10
2018-12-22T12:48:32.906Z,87.10
2018-12-22T12:51:02.326Z,87.10
2018-12-22T12:53:31.619Z,87.30
2018-12-22T12:56:01.050Z,87.40
2018-12-22T12:58:30.336Z,87.40
2018-12-22T13:00:59.633Z,87.50
2018-12-22T13:03:29.012Z,87.60
2018-12-22T13:05:59.217Z,88.20
2018-12-22T13:08:28.589Z,88.40
2018-12-22T13:10:57.960Z,88.90
2018-12-22T13:13:36.243Z,89.50
2018-12-22T13:16:05.733Z,89.90
2018-12-22T13:18:35.213Z,90.20
2018-12-22T13:21:06.035Z,90.40
2018-12-22T13:23:35.390Z,90.50
2018-12-22T13:26:04.850Z,90.60
2018-12-22T13:28:34.500Z,90.70
2018-12-22T13:31:04.236Z,90.60
2018-12-22T13:33:34.097Z,90.60
2018-12-22T13:36:03.485Z,90.60
2018-12-22T13:38:35.835Z,90.70
2018-12-22T13:41:05.158Z,90.90
2018-12-22T13:43:34.632Z,90.90
2018-12-22T13:46:04.021Z,91.00
2018-12-22T13:48:33.800Z,90.90
2018-12-22T13:51:03.221Z,91.10
2018-12-22T13:53:33.362Z,91.30
2018-12-22T13:56:02.646Z,91.30
2018-12-22T13:58:32.086Z,91.40
2018-12-22T14:01:02.644Z,91.30
2018-12-22T14:03:35.741Z,91.20
2018-12-22T14:06:06.662Z,91.10
2018-12-22T14:08:35.944Z,90.90
2018-12-22T14:11:05.312Z,91.10
2018-12-22T14:13:34.715Z,91.20
2018-12-22T14:16:13.754Z,91.20
2018-12-22T14:18:50.981Z,91.20
2018-12-22T14:21:20.363Z,91.20
2018-12-22T14:24:05.618Z,91.20
2018-12-22T14:26:35.380Z,91.30
2018-12-22T14:29:05.044Z,91.50
2018-12-22T14:31:34.499Z,91.50
2018-12-22T14:34:08.569Z,91.70
2018-12-22T14:36:37.981Z,91.80
2018-12-22T14:39:09.314Z,91.90
2018-12-22T14:41:38.651Z,92.10
2018-12-22T14:44:08.255Z,92.10
2018-12-22T14:46:37.944Z,92.30
2018-12-22T14:49:07.449Z,92.40
2018-12-22T14:51:36.805Z,92.60
2018-12-22T14:54:06.214Z,92.60
2018-12-22T14:56:41.803Z,92.80
2018-12-22T15:02:55.485Z,92.90
2018-12-22T15:05:24.917Z,93.00
2018-12-22T15:07:54.157Z,93.10
2018-12-22T15:10:23.534Z,93.20
2018-12-22T15:12:52.933Z,93.20
2018-12-22T15:15:22.420Z,93.20
2018-12-22T15:17:51.734Z,93.20
2018-12-22T15:20:23.522Z,93.20
2018-12-22T15:22:52.861Z,93.30
2018-12-22T15:25:22.248Z,93.30
2018-12-22T15:27:51.741Z,93.40
2018-12-22T15:30:21.190Z,93.40
2018-12-22T15:32:54.823Z,93.10
2018-12-22T15:35:22.146Z,93.00
2018-12-22T15:37:51.596Z,93.10
2018-12-22T15:40:21.020Z,93.10
2018-12-22T15:42:50.402Z,93.10
2018-12-22T15:45:19.722Z,93.20
2018-12-22T15:47:49.018Z,93.20
2018-12-22T15:50:20.280Z,93.30
2018-12-22T15:52:49.682Z,93.20
2018-12-22T15:55:19.009Z,93.20
2018-12-22T15:57:48.469Z,93.20
2018-12-22T16:00:17.789Z,93.10
2018-12-22T16:02:53.132Z,92.90
2018-12-22T16:05:19.034Z,92.70
2018-12-22T16:07:48.336Z,92.70
2018-12-22T16:10:17.584Z,92.60
2018-12-22T16:12:46.898Z,92.70
2018-12-22T16:15:18.179Z,93.00
2018-12-22T16:17:47.613Z,93.00
2018-12-22T16:20:16.932Z,92.70
2018-12-22T16:22:51.990Z,92.80
2018-12-22T16:25:21.290Z,93.30
2018-12-22T16:27:51.287Z,93.30
2018-12-22T16:30:24.337Z,93.40
2018-12-22T16:33:01.407Z,93.40
2018-12-22T16:35:25.021Z,93.30
2018-12-22T16:37:54.309Z,93.60
2018-12-22T16:40:23.798Z,92.60
2018-12-22T16:42:53.125Z,92.40
2018-12-22T16:45:22.512Z,92.30
2018-12-22T16:47:52.048Z,92.50
2018-12-22T16:50:21.357Z,92.80
2018-12-22T16:52:51.440Z,92.70
2018-12-22T16:55:20.855Z,92.50
2018-12-22T16:57:56.988Z,92.90
2018-12-22T17:00:28.352Z,93.10
2018-12-22T17:03:10.584Z,93.20
2018-12-22T17:05:36.282Z,93.00
2018-12-22T17:08:05.848Z,92.90
2018-12-22T17:10:44.446Z,92.60
2018-12-22T17:13:16.114Z,92.30
2018-12-22T17:15:56.620Z,92.30
2018-12-22T17:18:26.450Z,92.10
2018-12-22T17:21:00.362Z,92.10
2018-12-22T17:23:47.114Z,92.30
2018-12-22T17:26:16.652Z,92.30
2018-12-22T17:28:45.927Z,92.20
2018-12-22T17:31:15.556Z,92.00
2018-12-22T17:33:45.273Z,91.90
2018-12-22T17:36:15.097Z,91.60
2018-12-22T17:38:44.628Z,91.60
2018-12-22T17:41:14.413Z,91.80
2018-12-22T17:43:45.850Z,91.60
2018-12-22T17:46:15.790Z,91.80
2018-12-22T17:48:45.375Z,91.80
2018-12-22T17:51:14.796Z,91.80
2018-12-22T17:53:44.293Z,91.90
2018-12-22T17:56:13.736Z,91.90
2018-12-22T17:58:43.267Z,91.90
2018-12-22T18:01:12.730Z,92.20
2018-12-22T18:03:42.062Z,91.90
2018-12-22T18:06:11.439Z,92.10
2018-12-22T18:08:41.514Z,92.20
2018-12-22T18:11:11.012Z,92.10
2018-12-22T18:13:40.366Z,92.20
2018-12-22T18:16:10.080Z,92.20
2018-12-22T18:18:39.527Z,92.20
2018-12-22T18:21:08.975Z,92.30
2018-12-22T18:23:38.352Z,92.20
2018-12-22T18:26:07.963Z,92.00
2018-12-22T18:28:37.471Z,92.20
2018-12-22T18:31:06.876Z,92.00
2018-12-22T18:33:36.570Z,91.90
2018-12-22T18:36:05.992Z,91.60
2018-12-22T18:38:35.399Z,91.10
2018-12-22T18:41:05.921Z,90.70
2018-12-22T18:43:35.334Z,90.50
2018-12-22T18:46:04.658Z,90.10
2018-12-22T18:48:34.051Z,90.10
2018-12-22T18:51:03.444Z,89.70
2018-12-22T18:53:32.798Z,89.30
2018-12-22T18:56:02.205Z,89.60
2018-12-22T18:58:31.577Z,89.20
2018-12-22T19:01:01.020Z,88.90
2018-12-22T19:03:30.535Z,89.50
2018-12-22T19:05:59.949Z,89.10
2018-12-22T19:08:30.001Z,89.30
2018-12-22T19:11:03.123Z,89.30
2018-12-22T19:13:32.560Z,88.60
2018-12-22T19:16:02.187Z,89.10
2018-12-22T19:18:31.760Z,89.50
2018-12-22T19:21:01.074Z,89.50
2018-12-22T19:23:30.458Z,89.90
2018-12-22T19:26:00.090Z,90.30
2018-12-22T19:28:29.417Z,90.30
2018-12-22T19:30:58.792Z,90.10
2018-12-22T19:33:28.338Z,90.10
2018-12-22T19:35:57.677Z,90.30
2018-12-22T19:38:27.061Z,89.80
2018-12-22T19:40:56.502Z,89.40
2018-12-22T19:43:25.829Z,89.40
2018-12-22T19:45:55.313Z,89.40
2018-12-22T19:48:24.783Z,89.00
2018-12-22T19:50:54.216Z,88.90
2018-12-22T19:53:23.596Z,88.50
2018-12-22T19:55:52.985Z,88.20
2018-12-22T19:58:22.359Z,88.70
2018-12-22T20:00:51.913Z,86.90
2018-12-22T20:03:21.590Z,88.00
2018-12-22T20:05:51.012Z,88.30
2018-12-22T20:08:20.654Z,88.30
2018-12-22T20:14:36.415Z,89.40
2018-12-22T20:17:05.686Z,88.20
2018-12-22T20:19:35.156Z,88.00
2018-12-22T20:22:04.573Z,87.60
2018-12-22T20:24:33.868Z,86.70
2018-12-22T20:27:03.244Z,86.70
2018-12-22T20:29:32.564Z,85.90
2018-12-22T20:32:01.948Z,85.30
2018-12-22T20:34:31.295Z,85.80
2018-12-22T20:37:00.692Z,85.70
2018-12-22T20:39:31.120Z,84.70
2018-12-22T20:42:00.536Z,84.40
2018-12-22T20:44:30.557Z,84.10
2018-12-22T20:46:59.878Z,83.50
2018-12-22T20:49:29.235Z,83.60
2018-12-22T20:51:58.594Z,83.50
2018-12-22T20:54:27.938Z,84.00
2018-12-22T20:56:57.383Z,84.20
2018-12-22T20:59:26.748Z,83.90
2018-12-22T21:01:56.206Z,83.50
2018-12-22T21:04:25.685Z,83.70
2018-12-22T21:06:55.023Z,83.50
2018-12-22T21:09:24.398Z,82.70
2018-12-22T21:11:53.823Z,81.90
2018-12-22T21:14:23.258Z,82.30
2018-12-22T21:16:52.628Z,82.50
2018-12-22T21:19:22.024Z,81.30
2018-12-22T21:21:51.402Z,81.70
2018-12-22T21:24:20.692Z,82.60
2018-12-22T21:26:50.249Z,82.60
2018-12-22T21:29:19.546Z,83.10
2018-12-22T21:31:48.886Z,82.20
2018-12-22T21:34:18.847Z,83.20
2018-12-22T21:36:48.216Z,82.70
2018-12-22T21:39:17.550Z,82.60
2018-12-22T21:41:46.874Z,82.70
2018-12-22T21:44:16.143Z,82.80
2018-12-22T21:46:45.378Z,82.80
2018-12-22T21:49:14.691Z,83.40
2018-12-22T21:51:45.083Z,83.30
2018-12-22T21:54:14.475Z,84.60
2018-12-22T21:56:44.079Z,84.30
2018-12-22T21:59:13.387Z,84.00
2018-12-22T22:01:42.975Z,84.20
2018-12-22T22:04:12.342Z,84.40
2018-12-22T22:06:42.961Z,83.90
2018-12-22T22:09:12.913Z,84.00
2018-12-22T22:11:42.337Z,82.70
2018-12-22T22:14:11.770Z,83.10
2018-12-22T22:16:42.084Z,83.50
2018-12-22T22:19:11.535Z,83.80
2018-12-22T22:21:41.065Z,83.70
2018-12-22T22:24:10.610Z,83.90
2018-12-22T22:26:40.213Z,84.30
2018-12-22T22:29:09.666Z,84.50
2018-12-22T22:31:39.170Z,84.30
2018-12-22T22:34:08.580Z,83.90
2018-12-22T22:36:37.908Z,84.70
2018-12-22T22:39:07.232Z,85.20
2018-12-22T22:41:36.748Z,84.50
2018-12-22T22:44:06.284Z,83.90
2018-12-22T22:46:35.596Z,83.40
2018-12-22T22:49:05.103Z,83.40
2018-12-22T22:51:34.462Z,83.40
2018-12-22T22:54:03.917Z,82.60
2018-12-22T22:56:33.361Z,82.40
2018-12-22T22:59:02.809Z,82.00
2018-12-22T23:01:32.189Z,82.60
2018-12-22T23:04:02.401Z,82.20
2018-12-22T23:06:32.173Z,81.30
2018-12-22T23:09:01.954Z,81.60
2018-12-22T23:11:32.338Z,81.70
2018-12-22T23:14:01.685Z,83.60
2018-12-22T23:16:31.089Z,82.60
2018-12-22T23:19:00.571Z,83.40
2018-12-22T23:21:30.051Z,82.50
2018-12-22T23:23:59.489Z,81.10
2018-12-22T23:26:28.980Z,80.10
2018-12-22T23:28:58.536Z,81.20
2018-12-22T23:31:27.893Z,82.10
2018-12-22T23:33:57.415Z,82.20
2018-12-22T23:36:27.901Z,82.20
2018-12-22T23:38:57.335Z,82.60
2018-12-22T23:41:26.654Z,83.30
2018-12-22T23:43:56.376Z,83.20
2018-12-22T23:46:25.945Z,83.60
2018-12-22T23:48:55.532Z,83.40
2018-12-22T23:51:25.237Z,83.30
2018-12-22T23:53:54.769Z,84.30
2018-12-22T23:56:24.288Z,84.10
2018-12-22T23:59:00.138Z,84.50
